sensor_id;sensor_type;location;lat;lon;timestamp;temperature;humidity
1878;DHT22;939;51.426;6.972;2023-02-16T00:01:23;8.10;99.90
1878;DHT22;939;51.426;6.972;2023-02-16T00:03:51;8.20;99.90
1878;DHT22;939;51.426;6.972;2023-02-16T00:06:22;8.10;99.90
1878;DHT22;939;51.426;6.972;2023-02-16T00:08:51;8.10;99.90
1878;DHT22;939;51.426;6.972;2023-02-16T00:11:30;8.10;99.90
1878;DHT22;939;51.426;6.972;2023-02-16T00:14:15;8.00;99.90
1878;DHT22;939;51.426;6.972;2023-02-16T00:16:42;8.00;99.90
1878;DHT22;939;51.426;6.972;2023-02-16T00:19:18;8.00;99.90
1878;DHT22;939;51.426;6.972;2023-02-16T00:21:48;8.00;99.90
1878;DHT22;939;51.426;6.972;2023-02-16T00:24:15;8.00;99.90
1878;DHT22;939;51.426;6.972;2023-02-16T00:26:44;8.00;99.90
1878;DHT22;939;51.426;6.972;2023-02-16T00:29:18;8.00;99.90
1878;DHT22;939;51.426;6.972;2023-02-16T00:31:47;7.90;99.90
1878;DHT22;939;51.426;6.972;2023-02-16T00:34:27;7.90;99.90
1878;DHT22;939;51.426;6.972;2023-02-16T00:36:58;8.00;99.90
1878;DHT22;939;51.426;6.972;2023-02-16T00:39:25;8.00;99.90
1878;DHT22;939;51.426;6.972;2023-02-16T00:41:54;7.90;99.90
1878;DHT22;939;51.426;6.972;2023-02-16T00:44:28;7.80;99.90
1878;DHT22;939;51.426;6.972;2023-02-16T00:46:57;7.80;99.90
1878;DHT22;939;51.426;6.972;2023-02-16T00:49:24;7.90;99.90
1878;DHT22;939;51.426;6.972;2023-02-16T00:51:51;8.00;99.90
1878;DHT22;939;51.426;6.972;2023-02-16T00:54:20;7.90;99.90
1878;DHT22;939;51.426;6.972;2023-02-16T00:56:47;7.80;99.90
1878;DHT22;939;51.426;6.972;2023-02-16T00:59:17;7.80;99.90
1878;DHT22;939;51.426;6.972;2023-02-16T01:01:45;7.90;99.90
1878;DHT22;939;51.426;6.972;2023-02-16T01:04:19;7.90;99.90
1878;DHT22;939;51.426;6.972;2023-02-16T01:06:48;7.80;99.90
1878;DHT22;939;51.426;6.972;2023-02-16T01:09:34;7.90;99.90
1878;DHT22;939;51.426;6.972;2023-02-16T01:12:19;7.70;99.90
1878;DHT22;939;51.426;6.972;2023-02-16T01:14:50;7.80;99.90
1878;DHT22;939;51.426;6.972;2023-02-16T01:17:18;7.80;99.90
1878;DHT22;939;51.426;6.972;2023-02-16T01:19:45;7.80;99.90
1878;DHT22;939;51.426;6.972;2023-02-16T01:22:12;7.90;99.90
1878;DHT22;939;51.426;6.972;2023-02-16T01:24:40;7.90;99.90
1878;DHT22;939;51.426;6.972;2023-02-16T01:27:10;7.90;99.90
1878;DHT22;939;51.426;6.972;2023-02-16T01:29:39;7.80;99.90
1878;DHT22;939;51.426;6.972;2023-02-16T01:32:08;7.90;99.90
1878;DHT22;939;51.426;6.972;2023-02-16T01:34:35;7.80;99.90
1878;DHT22;939;51.426;6.972;2023-02-16T01:37:03;7.70;99.90
1878;DHT22;939;51.426;6.972;2023-02-16T01:39:30;7.80;99.90
1878;DHT22;939;51.426;6.972;2023-02-16T01:42:09;7.80;99.90
1878;DHT22;939;51.426;6.972;2023-02-16T01:44:42;7.60;99.90
1878;DHT22;939;51.426;6.972;2023-02-16T01:47:23;7.70;99.90
1878;DHT22;939;51.426;6.972;2023-02-16T01:49:52;7.80;99.90
1878;DHT22;939;51.426;6.972;2023-02-16T01:52:25;7.70;99.90
1878;DHT22;939;51.426;6.972;2023-02-16T01:54:58;7.70;99.90
1878;DHT22;939;51.426;6.972;2023-02-16T01:57:36;7.60;99.90
1878;DHT22;939;51.426;6.972;2023-02-16T02:00:12;7.60;99.90
1878;DHT22;939;51.426;6.972;2023-02-16T02:02:42;7.40;99.90
1878;DHT22;939;51.426;6.972;2023-02-16T02:05:25;7.50;99.90
1878;DHT22;939;51.426;6.972;2023-02-16T02:08:08;7.50;99.90
1878;DHT22;939;51.426;6.972;2023-02-16T02:10:41;7.60;99.90
1878;DHT22;939;51.426;6.972;2023-02-16T02:13:16;7.50;99.90
1878;DHT22;939;51.426;6.972;2023-02-16T02:15:46;7.30;99.90
1878;DHT22;939;51.426;6.972;2023-02-16T02:18:13;7.40;99.90
1878;DHT22;939;51.426;6.972;2023-02-16T02:20:59;7.50;99.90
1878;DHT22;939;51.426;6.972;2023-02-16T02:24:10;7.50;99.90
1878;DHT22;939;51.426;6.972;2023-02-16T02:27:02;7.50;99.90
1878;DHT22;939;51.426;6.972;2023-02-16T02:32:32;7.50;99.90
1878;DHT22;939;51.426;6.972;2023-02-16T02:35:17;7.40;99.90
1878;DHT22;939;51.426;6.972;2023-02-16T02:37:54;7.50;99.90
1878;DHT22;939;51.426;6.972;2023-02-16T02:40:29;7.50;99.90
1878;DHT22;939;51.426;6.972;2023-02-16T02:43:08;7.40;99.90
1878;DHT22;939;51.426;6.972;2023-02-16T02:45:41;7.40;99.90
1878;DHT22;939;51.426;6.972;2023-02-16T02:48:09;7.30;99.90
1878;DHT22;939;51.426;6.972;2023-02-16T02:50:45;7.30;99.90
1878;DHT22;939;51.426;6.972;2023-02-16T02:53:26;7.40;99.90
1878;DHT22;939;51.426;6.972;2023-02-16T02:55:53;7.50;99.90
1878;DHT22;939;51.426;6.972;2023-02-16T02:58:41;7.50;99.90
1878;DHT22;939;51.426;6.972;2023-02-16T09:24:35;9.30;99.90
1878;DHT22;939;51.426;6.972;2023-02-16T09:27:02;9.50;99.90
1878;DHT22;939;51.426;6.972;2023-02-16T09:29:29;9.60;99.90
1878;DHT22;939;51.426;6.972;2023-02-16T09:31:55;9.40;99.90
1878;DHT22;939;51.426;6.972;2023-02-16T09:34:23;9.60;99.90
1878;DHT22;939;51.426;6.972;2023-02-16T09:36:52;9.70;99.90
1878;DHT22;939;51.426;6.972;2023-02-16T09:39:19;9.60;99.90
1878;DHT22;939;51.426;6.972;2023-02-16T09:41:59;10.00;99.90
1878;DHT22;939;51.426;6.972;2023-02-16T09:44:38;10.00;99.90
1878;DHT22;939;51.426;6.972;2023-02-16T09:47:13;9.90;99.90
1878;DHT22;939;51.426;6.972;2023-02-16T09:49:43;9.90;99.90
1878;DHT22;939;51.426;6.972;2023-02-16T09:52:20;9.90;99.90
1878;DHT22;939;51.426;6.972;2023-02-16T09:54:51;9.80;99.90
1878;DHT22;939;51.426;6.972;2023-02-16T09:57:31;9.90;99.90
1878;DHT22;939;51.426;6.972;2023-02-16T10:00:04;10.00;99.90
1878;DHT22;939;51.426;6.972;2023-02-16T10:02:43;10.10;99.90
1878;DHT22;939;51.426;6.972;2023-02-16T10:05:16;10.10;99.90
1878;DHT22;939;51.426;6.972;2023-02-16T10:07:56;10.10;99.90
1878;DHT22;939;51.426;6.972;2023-02-16T10:10:39;10.10;99.90
1878;DHT22;939;51.426;6.972;2023-02-16T10:13:18;10.10;99.90
1878;DHT22;939;51.426;6.972;2023-02-16T10:15:47;10.10;99.90
1878;DHT22;939;51.426;6.972;2023-02-16T10:18:21;10.10;99.90
1878;DHT22;939;51.426;6.972;2023-02-16T10:20:51;10.00;99.90
1878;DHT22;939;51.426;6.972;2023-02-16T10:23:31;10.00;99.90
1878;DHT22;939;51.426;6.972;2023-02-16T10:26:05;10.00;99.90
1878;DHT22;939;51.426;6.972;2023-02-16T10:28:45;9.90;99.90
1878;DHT22;939;51.426;6.972;2023-02-16T10:31:18;9.90;99.90
1878;DHT22;939;51.426;6.972;2023-02-16T10:33:57;9.80;99.90
1878;DHT22;939;51.426;6.972;2023-02-16T10:36:42;9.80;99.90
1878;DHT22;939;51.426;6.972;2023-02-16T10:39:17;9.80;99.90
1878;DHT22;939;51.426;6.972;2023-02-16T10:41:50;9.80;99.90
1878;DHT22;939;51.426;6.972;2023-02-16T10:44:25;9.90;99.90
1878;DHT22;939;51.426;6.972;2023-02-16T10:46:58;10.00;99.90
1878;DHT22;939;51.426;6.972;2023-02-16T10:49:26;10.00;99.90
1878;DHT22;939;51.426;6.972;2023-02-16T10:51:55;10.10;99.90
1878;DHT22;939;51.426;6.972;2023-02-16T10:54:25;10.10;99.90
1878;DHT22;939;51.426;6.972;2023-02-16T10:56:54;10.00;99.90
1878;DHT22;939;51.426;6.972;2023-02-16T10:59:30;10.00;99.90
1878;DHT22;939;51.426;6.972;2023-02-16T11:02:01;10.10;99.90
1878;DHT22;939;51.426;6.972;2023-02-16T11:04:31;10.10;99.90
1878;DHT22;939;51.426;6.972;2023-02-16T11:07:05;10.10;99.90
1878;DHT22;939;51.426;6.972;2023-02-16T11:09:33;10.20;99.90
1878;DHT22;939;51.426;6.972;2023-02-16T11:12:01;10.40;99.90
1878;DHT22;939;51.426;6.972;2023-02-16T11:14:30;10.60;99.90
1878;DHT22;939;51.426;6.972;2023-02-16T11:17:06;10.80;99.90
1878;DHT22;939;51.426;6.972;2023-02-16T11:19:37;10.90;99.90
1878;DHT22;939;51.426;6.972;2023-02-16T11:22:05;10.90;99.90
1878;DHT22;939;51.426;6.972;2023-02-16T11:24:35;10.80;99.90
1878;DHT22;939;51.426;6.972;2023-02-16T11:27:05;10.70;99.90
1878;DHT22;939;51.426;6.972;2023-02-16T11:29:34;10.70;99.90
1878;DHT22;939;51.426;6.972;2023-02-16T11:32:05;10.60;99.90
1878;DHT22;939;51.426;6.972;2023-02-16T11:34:34;10.60;99.90
1878;DHT22;939;51.426;6.972;2023-02-16T11:37:05;10.50;99.90
1878;DHT22;939;51.426;6.972;2023-02-16T11:39:36;10.50;99.90
1878;DHT22;939;51.426;6.972;2023-02-16T11:42:06;10.60;99.90
1878;DHT22;939;51.426;6.972;2023-02-16T11:44:38;10.50;99.90
1878;DHT22;939;51.426;6.972;2023-02-16T11:47:09;10.60;99.90
1878;DHT22;939;51.426;6.972;2023-02-16T11:49:45;10.50;99.90
1878;DHT22;939;51.426;6.972;2023-02-16T11:52:19;10.70;99.90
1878;DHT22;939;51.426;6.972;2023-02-16T11:54:51;10.60;99.90
1878;DHT22;939;51.426;6.972;2023-02-16T11:57:23;10.60;99.90
1878;DHT22;939;51.426;6.972;2023-02-16T11:59:51;10.70;99.90
1878;DHT22;939;51.426;6.972;2023-02-16T12:02:38;10.70;99.90
1878;DHT22;939;51.426;6.972;2023-02-16T12:05:16;10.80;99.90
1878;DHT22;939;51.426;6.972;2023-02-16T12:07:57;10.60;99.90
1878;DHT22;939;51.426;6.972;2023-02-16T12:10:34;10.40;99.90
1878;DHT22;939;51.426;6.972;2023-02-16T12:13:09;10.40;99.90
1878;DHT22;939;51.426;6.972;2023-02-16T12:15:47;10.40;99.90
1878;DHT22;939;51.426;6.972;2023-02-16T12:18:26;10.30;99.90
1878;DHT22;939;51.426;6.972;2023-02-16T12:21:01;10.10;99.90
1878;DHT22;939;51.426;6.972;2023-02-16T12:23:38;10.40;99.90
1878;DHT22;939;51.426;6.972;2023-02-16T12:26:25;10.50;99.90
1878;DHT22;939;51.426;6.972;2023-02-16T12:29:02;10.50;99.90
1878;DHT22;939;51.426;6.972;2023-02-16T12:31:45;10.60;99.90
1878;DHT22;939;51.426;6.972;2023-02-16T12:34:22;10.70;99.90
1878;DHT22;939;51.426;6.972;2023-02-16T12:36:56;10.60;99.90
1878;DHT22;939;51.426;6.972;2023-02-16T12:39:30;10.70;99.90
1878;DHT22;939;51.426;6.972;2023-02-16T12:42:17;10.80;99.90
1878;DHT22;939;51.426;6.972;2023-02-16T12:44:49;10.70;99.90
1878;DHT22;939;51.426;6.972;2023-02-16T12:47:21;10.70;99.90
1878;DHT22;939;51.426;6.972;2023-02-16T12:49:52;10.80;99.90
1878;DHT22;939;51.426;6.972;2023-02-16T12:52:31;10.90;99.90
1878;DHT22;939;51.426;6.972;2023-02-16T12:55:09;10.90;99.90
1878;DHT22;939;51.426;6.972;2023-02-16T12:57:49;10.90;99.90
1878;DHT22;939;51.426;6.972;2023-02-16T13:00:20;11.10;99.90
1878;DHT22;939;51.426;6.972;2023-02-16T13:02:55;11.20;99.90
1878;DHT22;939;51.426;6.972;2023-02-16T13:05:29;11.30;99.90
1878;DHT22;939;51.426;6.972;2023-02-16T13:08:04;11.40;99.90
1878;DHT22;939;51.426;6.972;2023-02-16T13:10:48;11.40;99.90
1878;DHT22;939;51.426;6.972;2023-02-16T13:13:20;11.10;99.90
1878;DHT22;939;51.426;6.972;2023-02-16T13:15:52;11.20;99.90
1878;DHT22;939;51.426;6.972;2023-02-16T13:18:25;11.20;99.90
1878;DHT22;939;51.426;6.972;2023-02-16T13:20:57;11.20;99.90
1878;DHT22;939;51.426;6.972;2023-02-16T13:23:47;11.10;99.90
1878;DHT22;939;51.426;6.972;2023-02-16T13:26:42;11.10;99.90
1878;DHT22;939;51.426;6.972;2023-02-16T13:29:32;11.20;99.90
1878;DHT22;939;51.426;6.972;2023-02-16T13:32:21;11.20;99.90
1878;DHT22;939;51.426;6.972;2023-02-16T13:35:07;11.30;99.90
1878;DHT22;939;51.426;6.972;2023-02-16T13:37:59;11.50;99.90
1878;DHT22;939;51.426;6.972;2023-02-16T13:43:28;11.60;99.90
1878;DHT22;939;51.426;6.972;2023-02-16T13:45:58;11.70;99.90
1878;DHT22;939;51.426;6.972;2023-02-16T13:48:27;11.60;99.90
1878;DHT22;939;51.426;6.972;2023-02-16T13:51:02;11.50;99.90
1878;DHT22;939;51.426;6.972;2023-02-16T13:53:33;11.70;99.90
1878;DHT22;939;51.426;6.972;2023-02-16T13:56:19;11.70;99.90
1878;DHT22;939;51.426;6.972;2023-02-16T13:58:48;11.70;99.90
1878;DHT22;939;51.426;6.972;2023-02-16T14:01:43;11.50;99.90
1878;DHT22;939;51.426;6.972;2023-02-16T14:04:12;11.50;99.90
1878;DHT22;939;51.426;6.972;2023-02-16T14:06:41;11.30;99.90
1878;DHT22;939;51.426;6.972;2023-02-16T14:09:44;11.40;99.90
1878;DHT22;939;51.426;6.972;2023-02-16T14:12:16;11.40;99.90
1878;DHT22;939;51.426;6.972;2023-02-16T14:14:54;11.40;99.90
1878;DHT22;939;51.426;6.972;2023-02-16T14:17:25;11.40;99.90
1878;DHT22;939;51.426;6.972;2023-02-16T14:19:55;11.40;99.90
1878;DHT22;939;51.426;6.972;2023-02-16T14:22:31;11.40;99.90
1878;DHT22;939;51.426;6.972;2023-02-16T14:25:00;11.40;99.90
1878;DHT22;939;51.426;6.972;2023-02-16T14:27:43;11.40;99.90
1878;DHT22;939;51.426;6.972;2023-02-16T14:30:24;11.20;99.90
1878;DHT22;939;51.426;6.972;2023-02-16T14:32:55;11.10;99.90
1878;DHT22;939;51.426;6.972;2023-02-16T14:35:28;11.20;99.90
1878;DHT22;939;51.426;6.972;2023-02-16T14:38:01;11.20;99.90
1878;DHT22;939;51.426;6.972;2023-02-16T14:40:42;11.30;99.90
1878;DHT22;939;51.426;6.972;2023-02-16T14:43:29;11.40;99.90
1878;DHT22;939;51.426;6.972;2023-02-16T14:46:17;11.70;99.90
1878;DHT22;939;51.426;6.972;2023-02-16T14:52:10;12.10;99.90
1878;DHT22;939;51.426;6.972;2023-02-16T14:55:07;12.00;99.90
1878;DHT22;939;51.426;6.972;2023-02-16T14:57:41;12.10;99.90
1878;DHT22;939;51.426;6.972;2023-02-16T15:00:14;12.10;99.90
1878;DHT22;939;51.426;6.972;2023-02-16T15:02:54;11.80;99.90
1878;DHT22;939;51.426;6.972;2023-02-16T15:05:23;11.90;99.90
1878;DHT22;939;51.426;6.972;2023-02-16T15:07:56;11.90;99.90
1878;DHT22;939;51.426;6.972;2023-02-16T15:10:29;11.90;99.90
1878;DHT22;939;51.426;6.972;2023-02-16T15:12:57;11.90;99.90
1878;DHT22;939;51.426;6.972;2023-02-16T15:15:27;11.80;99.90
1878;DHT22;939;51.426;6.972;2023-02-16T15:17:55;11.70;99.90
1878;DHT22;939;51.426;6.972;2023-02-16T15:20:25;11.70;99.90
1878;DHT22;939;51.426;6.972;2023-02-16T15:22:55;11.80;99.90
1878;DHT22;939;51.426;6.972;2023-02-16T15:25:25;11.80;99.90
1878;DHT22;939;51.426;6.972;2023-02-16T15:27:57;11.80;99.90
1878;DHT22;939;51.426;6.972;2023-02-16T15:30:30;11.80;99.90
1878;DHT22;939;51.426;6.972;2023-02-16T15:32:59;12.00;99.90
1878;DHT22;939;51.426;6.972;2023-02-16T15:35:30;12.00;99.90
1878;DHT22;939;51.426;6.972;2023-02-16T15:38:03;12.00;99.90
1878;DHT22;939;51.426;6.972;2023-02-16T15:40:31;11.90;99.90
1878;DHT22;939;51.426;6.972;2023-02-16T15:43:07;11.90;99.90
1878;DHT22;939;51.426;6.972;2023-02-16T15:45:36;12.10;99.90
1878;DHT22;939;51.426;6.972;2023-02-16T15:48:23;12.10;99.90
1878;DHT22;939;51.426;6.972;2023-02-16T15:50:54;11.90;99.90
1878;DHT22;939;51.426;6.972;2023-02-16T15:53:23;11.90;99.90
1878;DHT22;939;51.426;6.972;2023-02-16T15:55:55;12.00;99.90
1878;DHT22;939;51.426;6.972;2023-02-16T15:58:24;12.00;99.90
1878;DHT22;939;51.426;6.972;2023-02-16T16:00:52;12.00;99.90
1878;DHT22;939;51.426;6.972;2023-02-16T16:03:20;12.00;99.90
1878;DHT22;939;51.426;6.972;2023-02-16T16:05:58;11.90;99.90
1878;DHT22;939;51.426;6.972;2023-02-16T16:08:26;11.80;99.90
1878;DHT22;939;51.426;6.972;2023-02-16T16:10:55;11.80;99.90
1878;DHT22;939;51.426;6.972;2023-02-16T16:13:26;11.60;99.90
1878;DHT22;939;51.426;6.972;2023-02-16T16:15:55;11.60;99.90
1878;DHT22;939;51.426;6.972;2023-02-16T16:18:50;11.70;99.90
1878;DHT22;939;51.426;6.972;2023-02-16T16:21:25;11.60;99.90
1878;DHT22;939;51.426;6.972;2023-02-16T16:23:56;11.70;99.90
1878;DHT22;939;51.426;6.972;2023-02-16T16:26:25;11.70;99.90
1878;DHT22;939;51.426;6.972;2023-02-16T16:28:53;11.70;99.90
1878;DHT22;939;51.426;6.972;2023-02-16T16:31:39;11.70;99.90
1878;DHT22;939;51.426;6.972;2023-02-16T16:34:10;11.60;99.90
1878;DHT22;939;51.426;6.972;2023-02-16T16:36:42;11.60;99.90
1878;DHT22;939;51.426;6.972;2023-02-16T16:39:21;11.50;99.90
1878;DHT22;939;51.426;6.972;2023-02-16T16:42:13;11.50;99.90
1878;DHT22;939;51.426;6.972;2023-02-16T16:44:43;11.50;99.90
1878;DHT22;939;51.426;6.972;2023-02-16T16:47:23;11.50;99.90
1878;DHT22;939;51.426;6.972;2023-02-16T16:49:53;11.30;99.90
1878;DHT22;939;51.426;6.972;2023-02-16T16:52:36;11.30;99.90
1878;DHT22;939;51.426;6.972;2023-02-16T16:55:22;11.30;99.90
1878;DHT22;939;51.426;6.972;2023-02-16T16:57:52;11.40;99.90
1878;DHT22;939;51.426;6.972;2023-02-16T17:00:21;11.50;99.90
1878;DHT22;939;51.426;6.972;2023-02-16T17:02:49;11.30;99.90
1878;DHT22;939;51.426;6.972;2023-02-16T17:05:16;11.40;99.90
1878;DHT22;939;51.426;6.972;2023-02-16T17:07:44;11.40;99.90
1878;DHT22;939;51.426;6.972;2023-02-16T17:10:14;11.40;99.90
1878;DHT22;939;51.426;6.972;2023-02-16T17:12:41;11.30;99.90
1878;DHT22;939;51.426;6.972;2023-02-16T17:15:30;11.30;99.90
1878;DHT22;939;51.426;6.972;2023-02-16T17:17:58;11.40;99.90
1878;DHT22;939;51.426;6.972;2023-02-16T17:20:25;11.40;99.90
1878;DHT22;939;51.426;6.972;2023-02-16T17:22:52;11.50;99.90
1878;DHT22;939;51.426;6.972;2023-02-16T17:25:19;11.40;99.90
1878;DHT22;939;51.426;6.972;2023-02-16T17:27:46;11.40;99.90
1878;DHT22;939;51.426;6.972;2023-02-16T17:30:14;11.30;99.90
1878;DHT22;939;51.426;6.972;2023-02-16T17:32:42;11.40;99.90
1878;DHT22;939;51.426;6.972;2023-02-16T17:35:09;11.40;99.90
1878;DHT22;939;51.426;6.972;2023-02-16T17:37:36;11.40;99.90
1878;DHT22;939;51.426;6.972;2023-02-16T17:40:09;11.50;99.90
1878;DHT22;939;51.426;6.972;2023-02-16T17:42:38;11.30;99.90
1878;DHT22;939;51.426;6.972;2023-02-16T17:45:05;11.40;99.90
1878;DHT22;939;51.426;6.972;2023-02-16T17:47:32;11.30;99.90
1878;DHT22;939;51.426;6.972;2023-02-16T17:50:01;11.30;99.90
1878;DHT22;939;51.426;6.972;2023-02-16T17:52:28;11.30;99.90
1878;DHT22;939;51.426;6.972;2023-02-16T17:54:55;11.30;99.90
1878;DHT22;939;51.426;6.972;2023-02-16T17:57:22;11.30;99.90
1878;DHT22;939;51.426;6.972;2023-02-16T17:59:49;11.30;99.90
1878;DHT22;939;51.426;6.972;2023-02-16T18:02:16;11.40;99.90
1878;DHT22;939;51.426;6.972;2023-02-16T18:04:43;11.40;99.90
1878;DHT22;939;51.426;6.972;2023-02-16T18:07:12;11.40;99.90
1878;DHT22;939;51.426;6.972;2023-02-16T18:09:39;11.30;99.90
1878;DHT22;939;51.426;6.972;2023-02-16T18:12:07;11.30;99.90
1878;DHT22;939;51.426;6.972;2023-02-16T18:14:34;11.30;99.90
1878;DHT22;939;51.426;6.972;2023-02-16T18:17:02;11.30;99.90
1878;DHT22;939;51.426;6.972;2023-02-16T18:19:29;11.30;99.90
1878;DHT22;939;51.426;6.972;2023-02-16T18:21:56;11.30;99.90
1878;DHT22;939;51.426;6.972;2023-02-16T18:24:25;11.30;99.90
1878;DHT22;939;51.426;6.972;2023-02-16T18:26:51;11.30;99.90
1878;DHT22;939;51.426;6.972;2023-02-16T18:29:19;11.10;99.90
1878;DHT22;939;51.426;6.972;2023-02-16T18:31:46;11.10;99.90
1878;DHT22;939;51.426;6.972;2023-02-16T18:34:13;11.00;99.90
1878;DHT22;939;51.426;6.972;2023-02-16T18:36:40;11.10;99.90
1878;DHT22;939;51.426;6.972;2023-02-16T18:39:08;11.10;99.90
1878;DHT22;939;51.426;6.972;2023-02-16T18:41:36;11.00;99.90
1878;DHT22;939;51.426;6.972;2023-02-16T18:44:04;11.10;99.90
1878;DHT22;939;51.426;6.972;2023-02-16T18:46:32;11.10;99.90
1878;DHT22;939;51.426;6.972;2023-02-16T18:48:59;11.10;99.90
1878;DHT22;939;51.426;6.972;2023-02-16T18:51:26;11.00;99.90
1878;DHT22;939;51.426;6.972;2023-02-16T18:53:56;11.10;99.90
1878;DHT22;939;51.426;6.972;2023-02-16T18:56:23;11.10;99.90
1878;DHT22;939;51.426;6.972;2023-02-16T18:58:53;11.10;99.90
1878;DHT22;939;51.426;6.972;2023-02-16T19:01:26;11.10;99.90
1878;DHT22;939;51.426;6.972;2023-02-16T19:03:55;11.10;99.90
1878;DHT22;939;51.426;6.972;2023-02-16T19:06:22;11.20;99.90
1878;DHT22;939;51.426;6.972;2023-02-16T19:08:49;11.20;99.90
1878;DHT22;939;51.426;6.972;2023-02-16T19:11:17;11.20;99.90
1878;DHT22;939;51.426;6.972;2023-02-16T19:13:44;11.20;99.90
1878;DHT22;939;51.426;6.972;2023-02-16T19:16:12;11.20;99.90
1878;DHT22;939;51.426;6.972;2023-02-16T19:18:41;11.20;99.90
1878;DHT22;939;51.426;6.972;2023-02-16T19:21:10;11.20;99.90
1878;DHT22;939;51.426;6.972;2023-02-16T19:23:38;11.20;99.90
1878;DHT22;939;51.426;6.972;2023-02-16T19:26:06;11.20;99.90
1878;DHT22;939;51.426;6.972;2023-02-16T19:28:33;11.20;99.90
1878;DHT22;939;51.426;6.972;2023-02-16T19:31:01;11.10;99.90
1878;DHT22;939;51.426;6.972;2023-02-16T19:33:30;11.10;99.90
1878;DHT22;939;51.426;6.972;2023-02-16T19:36:02;11.10;99.90
1878;DHT22;939;51.426;6.972;2023-02-16T19:38:29;11.10;99.90
1878;DHT22;939;51.426;6.972;2023-02-16T19:40:57;11.10;99.90
1878;DHT22;939;51.426;6.972;2023-02-16T19:43:24;11.10;99.90
1878;DHT22;939;51.426;6.972;2023-02-16T19:45:51;11.10;99.90
1878;DHT22;939;51.426;6.972;2023-02-16T19:48:18;11.00;99.90
1878;DHT22;939;51.426;6.972;2023-02-16T19:50:46;10.90;99.90
1878;DHT22;939;51.426;6.972;2023-02-16T19:53:13;10.80;99.90
1878;DHT22;939;51.426;6.972;2023-02-16T19:55:41;10.80;99.90
1878;DHT22;939;51.426;6.972;2023-02-16T19:58:08;10.80;99.90
1878;DHT22;939;51.426;6.972;2023-02-16T20:00:36;10.80;99.90
1878;DHT22;939;51.426;6.972;2023-02-16T20:03:04;10.80;99.90
1878;DHT22;939;51.426;6.972;2023-02-16T20:05:31;10.80;99.90
1878;DHT22;939;51.426;6.972;2023-02-16T20:08:00;10.70;99.90
1878;DHT22;939;51.426;6.972;2023-02-16T20:10:27;10.70;99.90
1878;DHT22;939;51.426;6.972;2023-02-16T20:12:55;10.70;99.90
1878;DHT22;939;51.426;6.972;2023-02-16T20:15:22;10.70;99.90
1878;DHT22;939;51.426;6.972;2023-02-16T20:17:50;10.80;99.90
1878;DHT22;939;51.426;6.972;2023-02-16T20:20:17;10.70;99.90
1878;DHT22;939;51.426;6.972;2023-02-16T20:22:44;10.60;99.90
1878;DHT22;939;51.426;6.972;2023-02-16T20:25:13;10.60;99.90
1878;DHT22;939;51.426;6.972;2023-02-16T20:27:40;10.50;99.90
1878;DHT22;939;51.426;6.972;2023-02-16T20:30:10;10.50;99.90
1878;DHT22;939;51.426;6.972;2023-02-16T20:32:41;10.50;99.90
1878;DHT22;939;51.426;6.972;2023-02-16T20:35:08;10.40;99.90
1878;DHT22;939;51.426;6.972;2023-02-16T20:37:35;10.50;99.90
1878;DHT22;939;51.426;6.972;2023-02-16T20:40:03;10.60;99.90
1878;DHT22;939;51.426;6.972;2023-02-16T20:42:31;10.70;99.90
1878;DHT22;939;51.426;6.972;2023-02-16T20:44:58;10.60;99.90
1878;DHT22;939;51.426;6.972;2023-02-16T20:47:25;10.60;99.90
1878;DHT22;939;51.426;6.972;2023-02-16T20:49:52;10.50;99.90
1878;DHT22;939;51.426;6.972;2023-02-16T20:52:19;10.50;99.90
1878;DHT22;939;51.426;6.972;2023-02-16T20:54:46;10.50;99.90
1878;DHT22;939;51.426;6.972;2023-02-16T20:57:13;10.50;99.90
1878;DHT22;939;51.426;6.972;2023-02-16T20:59:42;10.50;99.90
1878;DHT22;939;51.426;6.972;2023-02-16T21:02:10;10.50;99.90
1878;DHT22;939;51.426;6.972;2023-02-16T21:04:40;10.60;99.90
1878;DHT22;939;51.426;6.972;2023-02-16T21:07:07;10.60;99.90
1878;DHT22;939;51.426;6.972;2023-02-16T21:09:34;10.60;99.90
1878;DHT22;939;51.426;6.972;2023-02-16T21:12:01;10.60;99.90
1878;DHT22;939;51.426;6.972;2023-02-16T21:14:28;10.60;99.90
1878;DHT22;939;51.426;6.972;2023-02-16T21:16:57;10.60;99.90
1878;DHT22;939;51.426;6.972;2023-02-16T21:19:24;10.50;99.90
1878;DHT22;939;51.426;6.972;2023-02-16T21:21:51;10.50;99.90
1878;DHT22;939;51.426;6.972;2023-02-16T21:24:18;10.50;99.90
1878;DHT22;939;51.426;6.972;2023-02-16T21:26:45;10.60;99.90
1878;DHT22;939;51.426;6.972;2023-02-16T21:29:14;10.70;99.90
1878;DHT22;939;51.426;6.972;2023-02-16T21:31:41;10.70;99.90
1878;DHT22;939;51.426;6.972;2023-02-16T21:34:10;10.60;99.90
1878;DHT22;939;51.426;6.972;2023-02-16T21:36:37;10.60;99.90
1878;DHT22;939;51.426;6.972;2023-02-16T21:39:04;10.70;99.90
1878;DHT22;939;51.426;6.972;2023-02-16T21:41:31;10.70;99.90
1878;DHT22;939;51.426;6.972;2023-02-16T22:27:03;10.60;99.90
1878;DHT22;939;51.426;6.972;2023-02-16T22:29:59;10.60;99.90
1878;DHT22;939;51.426;6.972;2023-02-16T22:32:27;10.50;99.90
1878;DHT22;939;51.426;6.972;2023-02-16T22:34:56;10.50;99.90
1878;DHT22;939;51.426;6.972;2023-02-16T22:37:23;10.60;99.90
1878;DHT22;939;51.426;6.972;2023-02-16T22:39:56;10.50;99.90
1878;DHT22;939;51.426;6.972;2023-02-16T22:42:31;10.60;99.90
1878;DHT22;939;51.426;6.972;2023-02-16T22:45:00;10.60;99.90
1878;DHT22;939;51.426;6.972;2023-02-16T22:47:32;10.70;99.90
1878;DHT22;939;51.426;6.972;2023-02-16T22:50:08;10.70;99.90
1878;DHT22;939;51.426;6.972;2023-02-16T22:52:39;10.60;99.90
1878;DHT22;939;51.426;6.972;2023-02-16T22:55:07;10.60;99.90
1878;DHT22;939;51.426;6.972;2023-02-16T22:57:42;10.50;99.90
1878;DHT22;939;51.426;6.972;2023-02-16T23:00:13;10.50;99.90
1878;DHT22;939;51.426;6.972;2023-02-16T23:03:02;10.60;99.90
1878;DHT22;939;51.426;6.972;2023-02-16T23:05:29;10.60;99.90
1878;DHT22;939;51.426;6.972;2023-02-16T23:08:04;10.60;99.90
1878;DHT22;939;51.426;6.972;2023-02-16T23:10:38;10.70;99.90
1878;DHT22;939;51.426;6.972;2023-02-16T23:13:08;10.80;99.90
1878;DHT22;939;51.426;6.972;2023-02-16T23:15:38;10.80;99.90
1878;DHT22;939;51.426;6.972;2023-02-16T23:18:10;10.80;99.90
1878;DHT22;939;51.426;6.972;2023-02-16T23:21:02;10.80;99.90
1878;DHT22;939;51.426;6.972;2023-02-16T23:23:43;10.90;99.90
1878;DHT22;939;51.426;6.972;2023-02-16T23:26:13;10.90;99.90
1878;DHT22;939;51.426;6.972;2023-02-16T23:29:00;11.00;99.90
1878;DHT22;939;51.426;6.972;2023-02-16T23:34:51;10.90;99.90
1878;DHT22;939;51.426;6.972;2023-02-16T23:37:32;10.90;99.90
1878;DHT22;939;51.426;6.972;2023-02-16T23:40:13;11.00;99.90
1878;DHT22;939;51.426;6.972;2023-02-16T23:42:41;10.90;99.90
1878;DHT22;939;51.426;6.972;2023-02-16T23:45:09;11.00;99.90
1878;DHT22;939;51.426;6.972;2023-02-16T23:47:41;10.90;99.90
1878;DHT22;939;51.426;6.972;2023-02-16T23:50:12;10.90;99.90
1878;DHT22;939;51.426;6.972;2023-02-16T23:52:46;10.90;99.90
1878;DHT22;939;51.426;6.972;2023-02-16T23:55:17;11.00;99.90
1878;DHT22;939;51.426;6.972;2023-02-16T23:58:01;11.00;99.90
